Time;durP1;ratioP1;P1;durP2;ratioP2;P2;SDS_P1;SDS_P2;PMS_P1;PMS_P2;Temp;Humidity;BMP_temperature;BMP_pressure;BME280_temperature;BME280_humidity;BME280_pressure;Samples;Min_cycle;Max_cycle;Signal;HPM_P1;HPM_P2
2021/01/08 00:00:07;;;;;;;;;;;;;;;1.55;74.85;97843.92;1702426;83;24739;-87
2021/01/08 00:02:55;;;;;;;;;;;;;;;1.55;74.85;97847.80;1689133;84;20273;-88
2021/01/08 00:05:43;;;;;;;;;;;;;;;1.55;74.83;97846.06;1715321;83;25179;-88
2021/01/08 00:08:32;;;;;;;;;;;;;;;1.62;74.79;97853.08;1717650;83;22943;-88
2021/01/08 00:11:19;;;;;;;;;;;;;;;1.67;74.78;97852.43;1708700;82;26126;-88
2021/01/08 00:14:05;;;;;;;;;;;;;;;1.68;74.78;97856.23;1711893;82;24634;-88
2021/01/08 00:16:52;;;;;;;;;;;;;;;1.68;74.75;97854.95;1679098;84;34995;-88
2021/01/08 00:19:40;;;;;;;;;;;;;;;1.70;74.73;97860.02;1716121;83;25142;-88
2021/01/08 00:22:27;;;;;;;;;;;;;;;1.67;74.72;97857.59;1715271;82;22338;-87
2021/01/08 00:25:13;;;;;;;;;;;;;;;1.68;74.69;97860.11;1714729;83;26076;-87
2021/01/08 00:27:59;;;;;;;;;;;;;;;1.64;74.67;97861.57;1712350;83;24625;-88
2021/01/08 00:30:45;;;;;;;;;;;;;;;1.61;74.62;97855.27;1712854;82;20298;-88
2021/01/08 00:33:20;;;;;;;;;;;;;;;1.62;74.58;97853.92;1714747;83;25250;-88
2021/01/08 00:36:06;;;;;;;;;;;;;;;1.65;74.56;97851.65;1691242;84;22204;-88
2021/01/08 00:38:52;;;;;;;;;;;;;;;1.65;74.54;97853.78;1692722;84;26085;-87
2021/01/08 00:41:38;;;;;;;;;;;;;;;1.68;74.55;97854.11;1692855;84;24861;-88
2021/01/08 00:44:24;;;;;;;;;;;;;;;1.67;74.52;97847.27;1675104;85;20272;-88
2021/01/08 00:47:13;;;;;;;;;;;;;;;1.65;74.48;97847.78;1713126;83;25123;-88
2021/01/08 00:49:59;;;;;;;;;;;;;;;1.69;74.45;97842.89;1714884;83;23072;-88
2021/01/08 00:52:33;;;;;;;;;;;;;;;1.77;74.46;97850.28;1712901;82;26083;-88
2021/01/08 00:55:19;;;;;;;;;;;;;;;1.81;74.44;97847.49;1691284;83;24683;-89
2021/01/08 00:58:05;;;;;;;;;;;;;;;1.87;74.46;97854.96;1672747;85;20324;-88
2021/01/08 01:00:51;;;;;;;;;;;;;;;1.86;74.46;97855.86;1707979;84;25146;-88
2021/01/08 01:03:38;;;;;;;;;;;;;;;1.85;74.47;97849.50;1688955;84;22217;-88
2021/01/08 01:06:24;;;;;;;;;;;;;;;1.85;74.48;97845.19;1689225;84;26128;-89
2021/01/08 01:09:10;;;;;;;;;;;;;;;1.84;74.46;97853.82;1690427;84;24596;-88
2021/01/08 01:12:00;;;;;;;;;;;;;;;1.82;74.44;97851.75;1686895;84;20366;-88
2021/01/08 01:14:46;;;;;;;;;;;;;;;1.85;74.43;97845.63;1690180;84;25296;-88
2021/01/08 01:17:32;;;;;;;;;;;;;;;1.86;74.41;97842.96;1711706;83;22132;-88
2021/01/08 01:20:19;;;;;;;;;;;;;;;1.85;74.37;97841.77;1712158;83;26989;-88
2021/01/08 01:23:07;;;;;;;;;;;;;;;1.83;74.37;97838.41;1713526;82;24075;-88
2021/01/08 01:25:53;;;;;;;;;;;;;;;1.83;74.36;97836.66;1717921;82;20282;-88
2021/01/08 01:28:39;;;;;;;;;;;;;;;1.82;74.34;97838.85;1714254;83;25120;-88
2021/01/08 01:31:33;;;;;;;;;;;;;;;1.86;74.32;97840.38;1713143;82;22177;-87
2021/01/08 01:34:19;;;;;;;;;;;;;;;1.89;74.29;97833.81;1715668;83;27142;-87
2021/01/08 01:37:06;;;;;;;;;;;;;;;1.93;74.30;97825.47;1690934;83;24378;-87
2021/01/08 01:39:52;;;;;;;;;;;;;;;1.90;74.29;97829.05;1698161;84;20607;-88
2021/01/08 01:42:38;;;;;;;;;;;;;;;1.88;74.30;97828.27;1696165;84;25180;-87
2021/01/08 01:45:24;;;;;;;;;;;;;;;1.87;74.31;97821.42;1710723;82;22140;-87
2021/01/08 01:48:10;;;;;;;;;;;;;;;1.84;74.30;97820.28;1710760;83;27109;-87
2021/01/08 01:50:56;;;;;;;;;;;;;;;1.88;74.29;97817.94;1717943;82;24706;-88
2021/01/08 01:53:42;;;;;;;;;;;;;;;1.89;74.29;97817.05;1713118;83;20358;-87
2021/01/08 01:56:32;;;;;;;;;;;;;;;1.95;74.30;97810.77;1717726;83;25135;-87
2021/01/08 01:59:19;;;;;;;;;;;;;;;1.95;74.33;97808.19;1691675;83;22213;-87
2021/01/08 02:02:07;;;;;;;;;;;;;;;1.99;74.32;97814.88;1698139;83;27120;-87
2021/01/08 02:04:53;;;;;;;;;;;;;;;2.05;74.33;97806.41;1684155;84;24665;-87
2021/01/08 02:07:30;;;;;;;;;;;;;;;2.09;74.31;97805.35;1718099;82;20254;-87
2021/01/08 02:10:16;;;;;;;;;;;;;;;2.13;74.32;97807.33;1709995;83;25127;-87
2021/01/08 02:13:02;;;;;;;;;;;;;;;2.13;74.30;97803.45;1709129;83;21649;-87
2021/01/08 02:15:48;;;;;;;;;;;;;;;2.14;74.27;97803.84;1717772;83;26113;-88
2021/01/08 02:18:35;;;;;;;;;;;;;;;2.17;74.26;97805.47;1712844;83;24630;-88
2021/01/08 02:21:22;;;;;;;;;;;;;;;2.17;74.21;97804.17;1713876;83;20306;-87
2021/01/08 02:24:08;;;;;;;;;;;;;;;2.19;74.20;97806.20;1713642;83;26098;-87
2021/01/08 02:26:54;;;;;;;;;;;;;;;2.18;74.18;97798.11;1714686;82;23117;-87
2021/01/08 02:29:40;;;;;;;;;;;;;;;2.15;74.13;97800.36;1712675;83;26147;-87
2021/01/08 02:32:27;;;;;;;;;;;;;;;2.17;74.11;97797.72;1714451;83;24805;-87
2021/01/08 02:35:16;;;;;;;;;;;;;;;2.10;74.06;97794.58;1713022;83;20286;-88
2021/01/08 02:38:02;;;;;;;;;;;;;;;2.06;74.01;97797.77;1716242;83;25005;-87
2021/01/08 02:40:48;;;;;;;;;;;;;;;2.02;73.95;97793.63;1714397;83;22149;-88
2021/01/08 02:43:35;;;;;;;;;;;;;;;1.95;73.89;97803.03;1696015;83;26414;-88
2021/01/08 02:46:23;;;;;;;;;;;;;;;1.88;73.83;97802.47;1710810;83;25818;-88
2021/01/08 02:49:09;;;;;;;;;;;;;;;1.81;73.78;97801.06;1713314;82;20569;-87
2021/01/08 02:51:56;;;;;;;;;;;;;;;1.78;73.71;97802.50;1708995;83;25098;-88
2021/01/08 02:54:42;;;;;;;;;;;;;;;1.75;73.67;97804.36;1677676;85;22125;-88
2021/01/08 02:57:30;;;;;;;;;;;;;;;1.72;73.62;97801.93;1709693;83;26135;-88
2021/01/08 03:00:16;;;;;;;;;;;;;;;1.71;73.58;97800.25;1711579;83;24606;-88
2021/01/08 03:03:02;;;;;;;;;;;;;;;1.72;73.54;97803.22;1706978;83;20234;-87
2021/01/08 03:05:48;;;;;;;;;;;;;;;1.76;73.51;97811.20;1672360;84;25132;-88
2021/01/08 03:08:34;;;;;;;;;;;;;;;1.81;73.48;97813.95;1678984;84;22174;-88
2021/01/08 03:11:20;;;;;;;;;;;;;;;1.84;73.47;97811.70;1715711;82;27132;-88
2021/01/08 03:14:06;;;;;;;;;;;;;;;1.81;73.47;97817.83;1715413;82;24687;-88
2021/01/08 03:16:52;;;;;;;;;;;;;;;1.75;73.43;97811.64;1711905;83;20557;-87
2021/01/08 03:19:39;;;;;;;;;;;;;;;1.72;73.40;97818.25;1697840;84;25232;-88
2021/01/08 03:22:25;;;;;;;;;;;;;;;1.68;73.37;97816.72;1670836;84;22171;-88
2021/01/08 03:25:11;;;;;;;;;;;;;;;1.64;73.32;97819.86;1660366;84;26228;-88
2021/01/08 03:27:57;;;;;;;;;;;;;;;1.62;73.27;97824.72;1651853;86;24665;-88
2021/01/08 03:30:44;;;;;;;;;;;;;;;1.58;73.22;97825.28;1650750;85;20528;-88
2021/01/08 03:33:30;;;;;;;;;;;;;;;1.55;73.18;97820.27;1652451;86;26218;-88
2021/01/08 03:36:16;;;;;;;;;;;;;;;1.54;73.14;97821.17;1651447;86;22379;-87
2021/01/08 03:39:02;;;;;;;;;;;;;;;1.56;73.11;97821.11;1648089;86;26914;-87
2021/01/08 03:41:48;;;;;;;;;;;;;;;1.55;73.07;97824.14;1649909;86;25506;-87
2021/01/08 03:44:34;;;;;;;;;;;;;;;1.54;73.04;97817.30;1649641;86;21173;-88
2021/01/08 03:47:20;;;;;;;;;;;;;;;1.54;73.01;97818.59;1648812;85;25111;-88
2021/01/08 03:50:06;;;;;;;;;;;;;;;1.55;72.99;97818.14;1649945;86;22159;-88
2021/01/08 03:52:56;;;;;;;;;;;;;;;1.55;72.96;97812.98;1649872;86;26987;-88
2021/01/08 03:55:42;;;;;;;;;;;;;;;1.56;72.96;97813.37;1650266;86;24640;-88
2021/01/08 03:58:28;;;;;;;;;;;;;;;1.58;72.91;97820.61;1649589;85;20275;-88
2021/01/08 04:01:14;;;;;;;;;;;;;;;1.58;72.89;97812.87;1650335;86;25097;-89
2021/01/08 04:04:00;;;;;;;;;;;;;;;1.59;72.87;97811.94;1650693;86;22309;-88
2021/01/08 04:06:46;;;;;;;;;;;;;;;1.60;72.86;97817.48;1649721;85;26133;-88
2021/01/08 04:09:33;;;;;;;;;;;;;;;1.60;72.87;97817.04;1650033;86;25537;-89
2021/01/08 04:12:19;;;;;;;;;;;;;;;1.60;72.83;97814.91;1649965;86;20272;-88
2021/01/08 04:15:05;;;;;;;;;;;;;;;1.60;72.82;97818.33;1651638;85;25351;-88
2021/01/08 04:17:52;;;;;;;;;;;;;;;1.61;72.79;97820.45;1650397;86;21335;-89
2021/01/08 04:20:38;;;;;;;;;;;;;;;1.61;72.77;97815.30;1647034;86;26124;-88
2021/01/08 04:23:26;;;;;;;;;;;;;;;1.61;72.75;97812.72;1649907;87;24626;-88
2021/01/08 04:26:12;;;;;;;;;;;;;;;1.63;72.70;97810.92;1650110;86;20278;-88
2021/01/08 04:28:58;;;;;;;;;;;;;;;1.68;72.69;97815.42;1649040;87;25347;-89
2021/01/08 04:31:44;;;;;;;;;;;;;;;1.72;72.67;97822.56;1649836;86;22087;-88
2021/01/08 04:34:32;;;;;;;;;;;;;;;1.75;72.66;97823.70;1648213;86;27136;-88
2021/01/08 04:37:18;;;;;;;;;;;;;;;1.78;72.65;97816.69;1649046;85;24884;-87
2021/01/08 04:40:05;;;;;;;;;;;;;;;1.85;72.66;97819.39;1650403;87;20362;-88
2021/01/08 04:42:51;;;;;;;;;;;;;;;1.87;72.64;97820.13;1649838;85;25286;-88
2021/01/08 04:45:38;;;;;;;;;;;;;;;1.89;72.63;97822.20;1649055;87;22981;-88
2021/01/08 04:48:26;;;;;;;;;;;;;;;1.94;72.64;97821.99;1648474;87;27017;-87
2021/01/08 04:51:11;;;;;;;;;;;;;;;1.98;72.62;97820.94;1649785;87;24692;-88
2021/01/08 04:54:00;;;;;;;;;;;;;;;1.98;72.63;97819.65;1650359;87;20528;-87
2021/01/08 04:56:46;;;;;;;;;;;;;;;2.07;72.60;97826.51;1648115;87;25351;-88
2021/01/08 04:59:32;;;;;;;;;;;;;;;2.06;72.60;97829.19;1644954;86;22180;-88
2021/01/08 05:02:18;;;;;;;;;;;;;;;1.98;72.55;97820.94;1650070;87;27033;-87
2021/01/08 05:05:05;;;;;;;;;;;;;;;1.94;72.52;97822.83;1649784;86;24771;-87
2021/01/08 05:07:51;;;;;;;;;;;;;;;1.96;72.48;97821.48;1650254;86;20310;-88
2021/01/08 05:10:37;;;;;;;;;;;;;;;1.93;72.44;97825.02;1648417;85;25144;-87
2021/01/08 05:13:24;;;;;;;;;;;;;;;1.92;72.41;97820.77;1650199;86;22306;-87
2021/01/08 05:16:10;;;;;;;;;;;;;;;1.93;72.36;97821.60;1650208;86;26108;-87
2021/01/08 05:18:57;;;;;;;;;;;;;;;1.94;72.34;97818.96;1647946;86;24624;-87
2021/01/08 05:21:43;;;;;;;;;;;;;;;1.88;72.31;97829.55;1649426;86;20319;-87
2021/01/08 05:24:29;;;;;;;;;;;;;;;1.84;72.26;97822.02;1658739;84;25248;-88
2021/01/08 05:27:16;;;;;;;;;;;;;;;1.85;72.20;97828.41;1712095;84;22176;-88
2021/01/08 05:30:01;;;;;;;;;;;;;;;1.84;72.17;97831.05;1712298;84;26281;-87
2021/01/08 05:32:47;;;;;;;;;;;;;;;1.80;72.13;97832.10;1712340;82;24642;-87
2021/01/08 05:35:33;;;;;;;;;;;;;;;1.77;72.09;97832.22;1710798;82;20358;-87
2021/01/08 05:38:20;;;;;;;;;;;;;;;1.75;72.02;97830.98;1712055;84;25797;-88
2021/01/08 05:41:06;;;;;;;;;;;;;;;1.76;71.98;97833.12;1712390;84;22210;-87
2021/01/08 05:43:52;;;;;;;;;;;;;;;1.78;71.97;97829.58;1712402;83;26064;-87
2021/01/08 05:46:38;;;;;;;;;;;;;;;1.78;71.94;97832.16;1711961;83;25487;-87
2021/01/08 05:49:26;;;;;;;;;;;;;;;1.77;71.92;97836.93;1713426;82;20521;-87
2021/01/08 05:52:11;;;;;;;;;;;;;;;1.79;71.88;97836.42;1712471;82;25323;-87
2021/01/08 05:54:57;;;;;;;;;;;;;;;1.82;71.87;97835.44;1712528;83;22168;-87
2021/01/08 05:57:46;;;;;;;;;;;;;;;1.83;71.85;97834.53;1712398;83;26116;-87
2021/01/08 06:00:31;;;;;;;;;;;;;;;1.89;71.86;97831.23;1710857;83;24709;-88
2021/01/08 06:03:22;;;;;;;;;;;;;;;1.90;71.84;97830.78;1709134;83;20376;-87
2021/01/08 06:06:08;;;;;;;;;;;;;;;1.97;71.83;97838.16;1713109;82;25131;-87
2021/01/08 06:08:55;;;;;;;;;;;;;;;2.04;71.83;97833.56;1709816;83;22153;-87
2021/01/08 06:11:43;;;;;;;;;;;;;;;2.06;71.83;97830.47;1682113;84;27200;-87
2021/01/08 06:14:30;;;;;;;;;;;;;;;2.08;71.82;97828.19;1688090;84;24692;-87
2021/01/08 06:17:15;;;;;;;;;;;;;;;2.04;71.82;97829.24;1684809;83;20302;-87
2021/01/08 06:20:02;;;;;;;;;;;;;;;2.00;71.80;97828.17;1683061;84;25131;-87
2021/01/08 06:22:48;;;;;;;;;;;;;;;1.94;71.76;97829.28;1712076;83;22074;-87
2021/01/08 06:25:34;;;;;;;;;;;;;;;1.88;71.73;97832.13;1711117;83;26357;-87
2021/01/08 06:28:20;;;;;;;;;;;;;;;1.81;71.67;97832.46;1710541;83;25475;-87
2021/01/08 06:31:07;;;;;;;;;;;;;;;1.79;71.61;97831.71;1688019;83;20555;-87
2021/01/08 06:33:53;;;;;;;;;;;;;;;1.73;71.54;97828.11;1705694;83;25261;-87
2021/01/08 06:36:39;;;;;;;;;;;;;;;1.74;71.49;97833.66;1708190;82;22158;-87
2021/01/08 06:39:25;;;;;;;;;;;;;;;1.68;71.45;97831.73;1688871;84;26149;-87
2021/01/08 06:42:12;;;;;;;;;;;;;;;1.67;71.42;97833.93;1687004;84;24511;-88
2021/01/08 06:44:58;;;;;;;;;;;;;;;1.67;71.37;97826.64;1711032;83;20279;-87
2021/01/08 06:47:45;;;;;;;;;;;;;;;1.67;71.37;97825.34;1708904;82;25135;-87
2021/01/08 06:50:32;;;;;;;;;;;;;;;1.67;71.34;97823.61;1699380;82;21914;-88
2021/01/08 06:53:18;;;;;;;;;;;;;;;1.65;71.33;97826.70;1685693;84;27022;-88
2021/01/08 06:56:04;;;;;;;;;;;;;;;1.66;71.32;97825.80;1710233;83;24611;-87
2021/01/08 06:58:51;;;;;;;;;;;;;;;1.61;71.29;97826.45;1715095;82;20289;-88
2021/01/08 07:01:37;;;;;;;;;;;;;;;1.63;71.25;97828.98;1686646;84;25167;-87
2021/01/08 07:04:25;;;;;;;;;;;;;;;1.58;71.22;97822.70;1708456;82;22168;-88
2021/01/08 07:07:12;;;;;;;;;;;;;;;1.60;71.18;97831.22;1710022;82;26138;-88
2021/01/08 07:09:58;;;;;;;;;;;;;;;1.61;71.13;97832.06;1708668;83;24577;-87
2021/01/08 07:12:44;;;;;;;;;;;;;;;1.64;71.10;97828.88;1702941;83;20659;-87
2021/01/08 07:15:30;;;;;;;;;;;;;;;1.69;71.11;97832.58;1675893;84;25134;-88
2021/01/08 07:18:16;;;;;;;;;;;;;;;1.69;71.10;97833.87;1702731;83;22145;-87
2021/01/08 07:21:02;;;;;;;;;;;;;;;1.72;71.08;97842.75;1707130;83;26100;-89
2021/01/08 07:23:50;;;;;;;;;;;;;;;1.75;71.07;97844.34;1700003;83;24633;-88
2021/01/08 07:26:37;;;;;;;;;;;;;;;1.78;71.07;97851.51;1696704;83;20355;-87
2021/01/08 07:29:23;;;;;;;;;;;;;;;1.76;71.05;97849.44;1703743;83;26058;-87
2021/01/08 07:32:08;;;;;;;;;;;;;;;1.82;71.03;97854.78;1699734;83;21907;-88
2021/01/08 07:34:54;;;;;;;;;;;;;;;1.82;71.04;97858.65;1697473;84;25377;-88
2021/01/08 07:37:40;;;;;;;;;;;;;;;1.80;71.04;97861.28;1697952;83;24584;-87
2021/01/08 07:40:27;;;;;;;;;;;;;;;1.80;71.01;97863.05;1679168;84;20351;-87
2021/01/08 07:43:13;;;;;;;;;;;;;;;1.80;70.97;97869.51;1688864;83;25128;-87
2021/01/08 07:45:59;;;;;;;;;;;;;;;1.85;70.95;97867.11;1708557;83;22999;-88
2021/01/08 07:48:45;;;;;;;;;;;;;;;1.86;70.95;97866.18;1699260;83;26295;-87
2021/01/08 07:51:31;;;;;;;;;;;;;;;1.87;70.92;97870.44;1684114;84;24563;-87
2021/01/08 07:54:18;;;;;;;;;;;;;;;1.88;70.93;97867.41;1682179;84;20272;-88
2021/01/08 07:57:03;;;;;;;;;;;;;;;1.91;70.88;97874.55;1683997;84;25233;-88
2021/01/08 07:59:49;;;;;;;;;;;;;;;1.91;70.86;97873.75;1686927;84;22638;-88
2021/01/08 08:02:36;;;;;;;;;;;;;;;1.94;70.82;97873.14;1707703;83;26131;-88
2021/01/08 08:05:22;;;;;;;;;;;;;;;2.01;70.79;97875.84;1708965;83;24857;-88
2021/01/08 08:08:08;;;;;;;;;;;;;;;2.08;70.80;97875.94;1706462;83;20307;-88
2021/01/08 08:10:54;;;;;;;;;;;;;;;2.12;70.80;97878.39;1697767;84;25255;-88
2021/01/08 08:13:40;;;;;;;;;;;;;;;2.14;70.80;97878.69;1702763;83;22206;-88
2021/01/08 08:16:26;;;;;;;;;;;;;;;2.15;70.78;97873.92;1699640;83;26326;-88
2021/01/08 08:19:12;;;;;;;;;;;;;;;2.20;70.78;97875.00;1696284;84;24627;-88
2021/01/08 08:21:58;;;;;;;;;;;;;;;2.22;70.75;97875.33;1699894;83;20323;-89
2021/01/08 08:24:44;;;;;;;;;;;;;;;2.24;70.74;97879.11;1688795;84;25301;-88
2021/01/08 08:27:30;;;;;;;;;;;;;;;2.25;70.73;97879.50;1707336;82;22274;-88
2021/01/08 08:30:16;;;;;;;;;;;;;;;2.31;70.71;97880.52;1699358;83;26153;-88
2021/01/08 08:33:02;;;;;;;;;;;;;;;2.36;70.71;97881.98;1689073;84;24740;-87
2021/01/08 08:35:48;;;;;;;;;;;;;;;2.38;70.69;97882.75;1710991;83;20333;-88
2021/01/08 08:38:36;;;;;;;;;;;;;;;2.39;70.63;97884.89;1713367;82;26019;-88
2021/01/08 08:41:23;;;;;;;;;;;;;;;2.42;70.61;97883.44;1711245;83;22354;-88
2021/01/08 08:44:09;;;;;;;;;;;;;;;2.45;70.57;97885.45;1711507;83;26090;-88
2021/01/08 08:46:55;;;;;;;;;;;;;;;2.47;70.55;97885.36;1709967;83;25575;-87
2021/01/08 08:49:41;;;;;;;;;;;;;;;2.47;70.48;97887.94;1708534;83;20485;-87
2021/01/08 08:52:31;;;;;;;;;;;;;;;2.49;70.44;97893.88;1707083;83;25143;-87
2021/01/08 08:55:17;;;;;;;;;;;;;;;2.48;70.39;97893.04;1708775;82;22330;-87
2021/01/08 08:58:03;;;;;;;;;;;;;;;2.48;70.34;97894.78;1699994;83;26141;-88
2021/01/08 09:00:49;;;;;;;;;;;;;;;2.49;70.28;97900.34;1700510;82;24052;-87
2021/01/08 09:03:35;;;;;;;;;;;;;;;2.50;70.22;97900.73;1706868;83;20370;-87
2021/01/08 09:06:26;;;;;;;;;;;;;;;2.50;70.15;97905.89;1686686;84;25109;-88
2021/01/08 09:09:12;;;;;;;;;;;;;;;2.56;70.08;97899.16;1708769;82;22114;-87
2021/01/08 09:11:58;;;;;;;;;;;;;;;2.63;70.05;97908.27;1708784;82;26107;-88
2021/01/08 09:14:43;;;;;;;;;;;;;;;2.68;70.01;97906.31;1658886;84;24697;-88
2021/01/08 09:17:29;;;;;;;;;;;;;;;2.71;69.97;97904.05;1665395;85;20635;-88
2021/01/08 09:20:17;;;;;;;;;;;;;;;2.73;69.94;97909.52;1671841;84;26016;-88
2021/01/08 09:23:05;;;;;;;;;;;;;;;2.74;69.89;97903.44;1664616;84;22155;-87
2021/01/08 09:25:51;;;;;;;;;;;;;;;2.78;69.83;97907.55;1703153;82;27096;-88
2021/01/08 09:28:37;;;;;;;;;;;;;;;2.79;69.79;97902.77;1669705;84;24826;-88
2021/01/08 09:31:24;;;;;;;;;;;;;;;2.77;69.72;97908.48;1667748;85;20435;-87
2021/01/08 09:34:10;;;;;;;;;;;;;;;2.77;69.64;97910.23;1693782;84;25201;-88
2021/01/08 09:36:57;;;;;;;;;;;;;;;2.79;69.56;97908.39;1690684;84;22322;-88
2021/01/08 09:39:43;;;;;;;;;;;;;;;2.77;69.47;97911.07;1715203;82;27130;-88
2021/01/08 09:42:31;;;;;;;;;;;;;;;2.73;69.36;97908.22;1682029;84;24568;-87
2021/01/08 09:45:17;;;;;;;;;;;;;;;2.70;69.27;97901.92;1692888;84;20292;-88
2021/01/08 09:48:03;;;;;;;;;;;;;;;2.68;69.18;97902.89;1690776;84;25367;-88
2021/01/08 09:50:49;;;;;;;;;;;;;;;2.65;69.07;97902.59;1711466;83;22159;-88
2021/01/08 09:53:35;;;;;;;;;;;;;;;2.61;68.97;97897.20;1705672;83;27183;-88
2021/01/08 09:56:22;;;;;;;;;;;;;;;2.65;68.89;97890.97;1704498;83;24777;-87
2021/01/08 09:59:08;;;;;;;;;;;;;;;2.67;68.81;97889.61;1667391;85;20561;-88
2021/01/08 10:01:57;;;;;;;;;;;;;;;2.68;68.76;97882.22;1714065;83;25181;-88
2021/01/08 10:04:44;;;;;;;;;;;;;;;2.66;68.68;97877.60;1714837;83;23041;-88
2021/01/08 10:07:30;;;;;;;;;;;;;;;2.69;68.62;97878.28;1716040;82;26127;-88
2021/01/08 10:10:17;;;;;;;;;;;;;;;2.72;68.56;97878.16;1713244;83;24798;-88
2021/01/08 10:13:07;;;;;;;;;;;;;;;2.77;68.53;97876.19;1714270;83;20377;-88
2021/01/08 10:15:53;;;;;;;;;;;;;;;2.77;68.47;97871.47;1714861;83;25120;-88
2021/01/08 10:18:40;;;;;;;;;;;;;;;2.76;68.39;97874.52;1712764;82;22368;-87
2021/01/08 10:21:27;;;;;;;;;;;;;;;2.79;68.32;97867.05;1712650;83;27184;-87
2021/01/08 10:24:15;;;;;;;;;;;;;;;2.85;68.29;97868.89;1713740;82;24582;-87
2021/01/08 10:27:01;;;;;;;;;;;;;;;2.91;68.27;97862.59;1712781;83;20259;-87
2021/01/08 10:29:47;;;;;;;;;;;;;;;2.95;68.26;97860.23;1712786;82;26028;-87
2021/01/08 10:32:34;;;;;;;;;;;;;;;2.98;68.21;97856.68;1714542;83;22092;-87
2021/01/08 10:35:25;;;;;;;;;;;;;;;3.03;68.19;97862.00;1713477;82;26135;-87
2021/01/08 10:38:11;;;;;;;;;;;;;;;3.07;68.15;97854.92;1714383;82;24854;-88
2021/01/08 10:40:59;;;;;;;;;;;;;;;3.06;68.09;97856.67;1710802;83;20271;-87
2021/01/08 10:43:45;;;;;;;;;;;;;;;3.11;68.06;97855.98;1712693;83;25200;-88
2021/01/08 10:46:33;;;;;;;;;;;;;;;3.16;68.03;97846.28;1713549;83;22238;-88
2021/01/08 10:49:19;;;;;;;;;;;;;;;3.19;68.02;97845.28;1713832;83;26280;-88
2021/01/08 10:52:09;;;;;;;;;;;;;;;3.18;67.95;97843.60;1712119;83;24676;-88
2021/01/08 10:54:55;;;;;;;;;;;;;;;3.15;67.91;97842.48;1703443;83;20267;-88
2021/01/08 10:57:42;;;;;;;;;;;;;;;3.15;67.83;97842.02;1691680;84;25097;-88
2021/01/08 11:00:28;;;;;;;;;;;;;;;3.14;67.75;97839.50;1677324;85;22167;-89
2021/01/08 11:03:14;;;;;;;;;;;;;;;3.16;67.69;97837.69;1687451;83;25978;-88
2021/01/08 11:06:00;;;;;;;;;;;;;;;3.20;67.64;97840.50;1675214;85;24657;-89
2021/01/08 11:08:47;;;;;;;;;;;;;;;3.22;67.60;97839.94;1691482;83;20279;-88
2021/01/08 11:11:34;;;;;;;;;;;;;;;3.19;67.54;97841.41;1712991;83;26055;-88
2021/01/08 11:14:21;;;;;;;;;;;;;;;3.14;67.41;97838.21;1713648;82;23002;-88
2021/01/08 11:17:07;;;;;;;;;;;;;;;3.10;67.27;97841.88;1713515;82;26189;-88
2021/01/08 11:19:54;;;;;;;;;;;;;;;3.08;67.16;97831.59;1715043;82;24589;-89
2021/01/08 11:22:42;;;;;;;;;;;;;;;3.10;67.07;97831.53;1713938;82;20604;-88
2021/01/08 11:25:30;;;;;;;;;;;;;;;3.12;66.99;97833.11;1712953;82;26001;-89
2021/01/08 11:28:17;;;;;;;;;;;;;;;3.18;66.94;97826.34;1719801;82;22103;-88
2021/01/08 11:31:04;;;;;;;;;;;;;;;3.23;66.89;97832.58;1677266;84;27146;-87
2021/01/08 11:33:50;;;;;;;;;;;;;;;3.22;66.81;97830.44;1699560;83;24805;-88
2021/01/08 11:36:37;;;;;;;;;;;;;;;3.20;66.73;97830.99;1700630;82;20336;-88
2021/01/08 11:39:23;;;;;;;;;;;;;;;3.18;66.65;97834.10;1701894;82;25145;-89
2021/01/08 11:42:09;;;;;;;;;;;;;;;3.18;66.58;97828.93;1703775;83;22044;-88
2021/01/08 11:44:55;;;;;;;;;;;;;;;3.16;66.48;97829.94;1695067;82;26102;-88
2021/01/08 11:47:42;;;;;;;;;;;;;;;3.13;66.40;97829.62;1674964;84;25572;-89
2021/01/08 11:50:34;;;;;;;;;;;;;;;3.15;66.30;97823.09;1669758;85;20500;-88
2021/01/08 11:53:20;;;;;;;;;;;;;;;3.20;66.26;97829.70;1661722;85;25328;-89
2021/01/08 11:56:07;;;;;;;;;;;;;;;3.23;66.22;97820.94;1678396;84;22368;-88
2021/01/08 11:58:52;;;;;;;;;;;;;;;3.24;66.14;97822.61;1692898;83;25345;-89
2021/01/08 12:01:39;;;;;;;;;;;;;;;3.29;66.11;97821.92;1713224;82;24764;-88
2021/01/08 12:04:25;;;;;;;;;;;;;;;3.30;66.08;97815.39;1702197;83;20578;-88
2021/01/08 12:07:11;;;;;;;;;;;;;;;3.29;66.02;97816.30;1690384;83;25134;-88
2021/01/08 12:09:57;;;;;;;;;;;;;;;3.29;65.96;97818.05;1710974;82;21347;-89
2021/01/08 12:12:47;;;;;;;;;;;;;;;3.28;65.88;97815.08;1710284;82;26113;-89
2021/01/08 12:15:33;;;;;;;;;;;;;;;3.29;65.76;97820.63;1710381;83;24586;-89
2021/01/08 12:18:19;;;;;;;;;;;;;;;3.34;65.72;97825.95;1702465;82;20521;-89
2021/01/08 12:21:06;;;;;;;;;;;;;;;3.42;65.70;97824.28;1695693;82;25344;-88
2021/01/08 12:23:51;;;;;;;;;;;;;;;3.46;65.66;97819.78;1665599;84;22325;-88
2021/01/08 12:26:38;;;;;;;;;;;;;;;3.44;65.61;97819.04;1638663;85;26153;-87
2021/01/08 12:29:25;;;;;;;;;;;;;;;3.42;65.56;97824.73;1679285;84;24656;-89
2021/01/08 12:32:14;;;;;;;;;;;;;;;3.41;65.50;97819.18;1687775;84;20259;-88
2021/01/08 12:35:01;;;;;;;;;;;;;;;3.40;65.41;97822.67;1704945;83;25118;-88
2021/01/08 12:37:47;;;;;;;;;;;;;;;3.42;65.36;97820.86;1707352;83;23037;-88
2021/01/08 12:40:23;;;;;;;;;;;;;;;3.40;65.30;97826.09;1709036;83;26974;-89
2021/01/08 12:43:09;;;;;;;;;;;;;;;3.38;65.23;97817.60;1708828;83;24829;-88
2021/01/08 12:45:55;;;;;;;;;;;;;;;3.38;65.18;97821.00;1672962;85;20224;-88
2021/01/08 12:48:42;;;;;;;;;;;;;;;3.38;65.15;97818.05;1710676;82;25191;-88
2021/01/08 12:51:27;;;;;;;;;;;;;;;3.32;65.06;97818.75;1689656;84;22137;-88
2021/01/08 12:54:15;;;;;;;;;;;;;;;3.28;65.01;97811.20;1714637;82;26189;-88
2021/01/08 12:57:00;;;;;;;;;;;;;;;3.22;64.92;97809.75;1711831;82;25482;-88
2021/01/08 12:59:47;;;;;;;;;;;;;;;3.20;64.83;97812.89;1714250;82;20301;-87
2021/01/08 13:02:34;;;;;;;;;;;;;;;3.20;64.78;97809.47;1711470;83;25132;-88
2021/01/08 13:05:20;;;;;;;;;;;;;;;3.15;64.71;97807.13;1714219;82;23274;-88
2021/01/08 13:08:06;;;;;;;;;;;;;;;3.11;64.64;97807.36;1713916;82;26297;-88
2021/01/08 13:10:53;;;;;;;;;;;;;;;3.11;64.58;97809.95;1710913;83;25666;-87
2021/01/08 13:13:38;;;;;;;;;;;;;;;3.13;64.54;97814.11;1721557;82;20369;-88
2021/01/08 13:16:13;;;;;;;;;;;;;;;3.19;64.52;97809.09;1711444;83;25112;-88
2021/01/08 13:19:00;;;;;;;;;;;;;;;3.22;64.48;97807.63;1713120;83;22320;-88
2021/01/08 13:21:46;;;;;;;;;;;;;;;3.24;64.43;97809.23;1714484;83;26528;-88
2021/01/08 13:24:32;;;;;;;;;;;;;;;3.31;64.39;97809.31;1715735;82;25798;-88
2021/01/08 13:27:19;;;;;;;;;;;;;;;3.38;64.39;97805.48;1712368;83;20483;-89
2021/01/08 13:30:05;;;;;;;;;;;;;;;3.39;64.37;97810.20;1676059;84;25246;-87
2021/01/08 13:32:51;;;;;;;;;;;;;;;3.40;64.33;97814.91;1711235;83;22146;-89
2021/01/08 13:35:39;;;;;;;;;;;;;;;3.45;64.31;97814.22;1711355;83;26275;-88
2021/01/08 13:38:25;;;;;;;;;;;;;;;3.46;64.29;97814.61;1714208;82;24607;-88
2021/01/08 13:41:11;;;;;;;;;;;;;;;3.41;64.25;97820.02;1714670;83;20326;-89
2021/01/08 13:43:57;;;;;;;;;;;;;;;3.40;64.20;97820.92;1715342;82;26096;-88
2021/01/08 13:46:43;;;;;;;;;;;;;;;3.38;64.16;97831.34;1715279;82;22317;-88
2021/01/08 13:49:31;;;;;;;;;;;;;;;3.38;64.14;97827.11;1714798;82;26321;-89
2021/01/08 13:52:18;;;;;;;;;;;;;;;3.36;64.11;97825.88;1716619;82;24906;-88
2021/01/08 13:55:07;;;;;;;;;;;;;;;3.38;64.09;97831.83;1714857;82;20513;-89
2021/01/08 13:57:53;;;;;;;;;;;;;;;3.34;64.07;97830.28;1717466;82;25201;-89
2021/01/08 14:00:41;;;;;;;;;;;;;;;3.31;64.04;97830.00;1712708;83;22150;-89
2021/01/08 14:03:27;;;;;;;;;;;;;;;3.31;64.02;97833.88;1714552;82;26143;-88
2021/01/08 14:06:13;;;;;;;;;;;;;;;3.30;63.99;97835.23;1714325;82;24625;-88
2021/01/08 14:09:03;;;;;;;;;;;;;;;3.32;63.97;97835.56;1721462;82;20695;-88
2021/01/08 14:11:49;;;;;;;;;;;;;;;3.31;64.00;97828.70;1712913;83;26125;-88
2021/01/08 14:14:36;;;;;;;;;;;;;;;3.26;63.94;97835.02;1713216;82;22176;-88
2021/01/08 14:17:23;;;;;;;;;;;;;;;3.17;63.91;97834.16;1713139;83;26332;-88
2021/01/08 14:20:11;;;;;;;;;;;;;;;3.12;63.84;97840.02;1697795;83;24805;-89
2021/01/08 14:22:58;;;;;;;;;;;;;;;3.05;63.80;97838.22;1716163;82;20514;-89
2021/01/08 14:25:44;;;;;;;;;;;;;;;2.99;63.74;97835.94;1716701;82;25139;-89
2021/01/08 14:28:31;;;;;;;;;;;;;;;2.98;63.73;97835.55;1714852;82;22320;-89
2021/01/08 14:31:17;;;;;;;;;;;;;;;2.90;63.69;97839.78;1720248;82;26326;-89
2021/01/08 14:34:03;;;;;;;;;;;;;;;2.88;63.66;97835.17;1707477;83;24662;-89
2021/01/08 14:36:50;;;;;;;;;;;;;;;2.87;63.64;97842.53;1689957;83;20516;-89